sensor_id;sensor_type;location;lat;lon;timestamp;P1;durP1;ratioP1;P2;durP2;ratioP2
36441;SDS011;22470;50.824;16.284;2022-07-23T00:00:54;19.15;;;13.85;;
36441;SDS011;22470;50.824;16.284;2022-07-23T00:03:22;19.20;;;13.10;;
36441;SDS011;22470;50.824;16.284;2022-07-23T00:05:49;17.83;;;13.40;;
36441;SDS011;22470;50.824;16.284;2022-07-23T00:08:16;18.42;;;13.68;;
36441;SDS011;22470;50.824;16.284;2022-07-23T00:10:44;20.20;;;13.98;;
36441;SDS011;22470;50.824;16.284;2022-07-23T00:13:11;18.25;;;14.30;;
36441;SDS011;22470;50.824;16.284;2022-07-23T00:15:38;23.02;;;14.27;;
36441;SDS011;22470;50.824;16.284;2022-07-23T00:18:05;19.52;;;13.65;;
36441;SDS011;22470;50.824;16.284;2022-07-23T00:20:33;19.48;;;14.15;;
36441;SDS011;22470;50.824;16.284;2022-07-23T00:23:00;20.42;;;15.48;;
36441;SDS011;22470;50.824;16.284;2022-07-23T00:25:27;19.20;;;13.68;;
36441;SDS011;22470;50.824;16.284;2022-07-23T00:27:57;18.25;;;13.65;;
36441;SDS011;22470;50.824;16.284;2022-07-23T00:30:25;20.60;;;14.35;;
36441;SDS011;22470;50.824;16.284;2022-07-23T00:32:54;20.90;;;15.10;;
36441;SDS011;22470;50.824;16.284;2022-07-23T00:35:26;23.98;;;13.63;;
36441;SDS011;22470;50.824;16.284;2022-07-23T00:37:55;20.08;;;13.63;;
36441;SDS011;22470;50.824;16.284;2022-07-23T00:40:22;20.92;;;13.90;;
36441;SDS011;22470;50.824;16.284;2022-07-23T00:42:50;18.45;;;14.35;;
36441;SDS011;22470;50.824;16.284;2022-07-23T00:45:18;20.77;;;15.07;;
36441;SDS011;22470;50.824;16.284;2022-07-23T00:47:45;23.25;;;15.43;;
36441;SDS011;22470;50.824;16.284;2022-07-23T00:50:13;23.35;;;15.43;;
36441;SDS011;22470;50.824;16.284;2022-07-23T00:52:41;21.52;;;15.15;;
36441;SDS011;22470;50.824;16.284;2022-07-23T00:55:09;21.85;;;15.10;;
36441;SDS011;22470;50.824;16.284;2022-07-23T00:57:37;21.45;;;15.75;;
36441;SDS011;22470;50.824;16.284;2022-07-23T01:00:07;21.98;;;14.43;;
36441;SDS011;22470;50.824;16.284;2022-07-23T01:02:36;21.50;;;15.30;;
36441;SDS011;22470;50.824;16.284;2022-07-23T01:05:04;21.55;;;14.35;;
36441;SDS011;22470;50.824;16.284;2022-07-23T01:07:32;22.10;;;14.35;;
36441;SDS011;22470;50.824;16.284;2022-07-23T01:10:00;19.83;;;14.90;;
36441;SDS011;22470;50.824;16.284;2022-07-23T01:12:29;18.58;;;13.73;;
36441;SDS011;22470;50.824;16.284;2022-07-23T01:14:57;20.75;;;14.63;;
36441;SDS011;22470;50.824;16.284;2022-07-23T01:17:26;20.63;;;14.10;;
36441;SDS011;22470;50.824;16.284;2022-07-23T01:19:53;20.50;;;15.20;;
36441;SDS011;22470;50.824;16.284;2022-07-23T01:22:21;21.27;;;14.50;;
36441;SDS011;22470;50.824;16.284;2022-07-23T01:24:48;20.20;;;15.02;;
36441;SDS011;22470;50.824;16.284;2022-07-23T01:27:15;18.95;;;13.88;;
36441;SDS011;22470;50.824;16.284;2022-07-23T01:29:43;20.70;;;14.20;;
36441;SDS011;22470;50.824;16.284;2022-07-23T01:32:10;22.30;;;15.25;;
36441;SDS011;22470;50.824;16.284;2022-07-23T01:34:37;20.80;;;15.48;;
36441;SDS011;22470;50.824;16.284;2022-07-23T01:37:04;24.85;;;15.80;;
36441;SDS011;22470;50.824;16.284;2022-07-23T01:39:31;21.70;;;15.25;;
36441;SDS011;22470;50.824;16.284;2022-07-23T01:41:59;20.05;;;13.77;;
36441;SDS011;22470;50.824;16.284;2022-07-23T01:44:26;22.45;;;16.27;;
36441;SDS011;22470;50.824;16.284;2022-07-23T01:46:53;25.70;;;19.17;;
36441;SDS011;22470;50.824;16.284;2022-07-23T01:49:23;27.70;;;21.25;;
36441;SDS011;22470;50.824;16.284;2022-07-23T01:51:50;24.13;;;17.55;;
36441;SDS011;22470;50.824;16.284;2022-07-23T01:54:17;24.88;;;15.38;;
36441;SDS011;22470;50.824;16.284;2022-07-23T01:56:44;23.50;;;16.33;;
36441;SDS011;22470;50.824;16.284;2022-07-23T01:59:11;21.80;;;14.65;;
36441;SDS011;22470;50.824;16.284;2022-07-23T02:01:38;23.60;;;15.65;;
36441;SDS011;22470;50.824;16.284;2022-07-23T02:04:06;22.17;;;16.15;;
36441;SDS011;22470;50.824;16.284;2022-07-23T02:06:33;24.38;;;18.50;;
36441;SDS011;22470;50.824;16.284;2022-07-23T02:09:00;25.70;;;15.38;;
36441;SDS011;22470;50.824;16.284;2022-07-23T02:11:28;22.40;;;14.27;;
36441;SDS011;22470;50.824;16.284;2022-07-23T02:13:55;19.65;;;15.30;;
36441;SDS011;22470;50.824;16.284;2022-07-23T02:16:22;21.10;;;14.07;;
36441;SDS011;22470;50.824;16.284;2022-07-23T02:18:49;19.77;;;14.48;;
36441;SDS011;22470;50.824;16.284;2022-07-23T02:21:17;19.55;;;13.55;;
36441;SDS011;22470;50.824;16.284;2022-07-23T02:23:44;19.67;;;14.45;;
36441;SDS011;22470;50.824;16.284;2022-07-23T02:26:12;20.38;;;14.20;;
36441;SDS011;22470;50.824;16.284;2022-07-23T02:28:45;24.38;;;15.18;;
36441;SDS011;22470;50.824;16.284;2022-07-23T02:31:13;22.70;;;15.05;;
36441;SDS011;22470;50.824;16.284;2022-07-23T02:33:40;20.65;;;13.88;;
36441;SDS011;22470;50.824;16.284;2022-07-23T02:36:07;19.10;;;13.50;;
36441;SDS011;22470;50.824;16.284;2022-07-23T02:38:36;20.27;;;14.00;;
36441;SDS011;22470;50.824;16.284;2022-07-23T02:41:03;23.73;;;15.95;;
36441;SDS011;22470;50.824;16.284;2022-07-23T02:43:30;26.70;;;16.25;;
36441;SDS011;22470;50.824;16.284;2022-07-23T02:45:57;25.08;;;15.38;;
36441;SDS011;22470;50.824;16.284;2022-07-23T02:48:24;22.98;;;16.05;;
36441;SDS011;22470;50.824;16.284;2022-07-23T02:50:51;19.85;;;14.10;;
36441;SDS011;22470;50.824;16.284;2022-07-23T02:53:19;19.85;;;13.85;;
36441;SDS011;22470;50.824;16.284;2022-07-23T02:55:46;23.17;;;14.48;;
36441;SDS011;22470;50.824;16.284;2022-07-23T02:58:13;20.30;;;14.07;;
36441;SDS011;22470;50.824;16.284;2022-07-23T03:00:40;21.50;;;14.13;;
36441;SDS011;22470;50.824;16.284;2022-07-23T03:03:08;18.83;;;14.32;;
36441;SDS011;22470;50.824;16.284;2022-07-23T03:05:35;20.35;;;13.57;;
36441;SDS011;22470;50.824;16.284;2022-07-23T03:08:02;22.15;;;14.52;;
36441;SDS011;22470;50.824;16.284;2022-07-23T03:10:29;21.35;;;14.48;;
36441;SDS011;22470;50.824;16.284;2022-07-23T03:12:56;22.38;;;14.80;;
36441;SDS011;22470;50.824;16.284;2022-07-23T03:15:24;21.85;;;14.90;;
36441;SDS011;22470;50.824;16.284;2022-07-23T03:17:51;22.92;;;14.90;;
36441;SDS011;22470;50.824;16.284;2022-07-23T03:20:18;19.95;;;14.25;;
36441;SDS011;22470;50.824;16.284;2022-07-23T03:22:46;22.25;;;14.88;;
36441;SDS011;22470;50.824;16.284;2022-07-23T03:25:13;22.17;;;14.75;;
36441;SDS011;22470;50.824;16.284;2022-07-23T03:27:40;22.42;;;14.75;;
36441;SDS011;22470;50.824;16.284;2022-07-23T03:30:07;20.75;;;14.45;;
36441;SDS011;22470;50.824;16.284;2022-07-23T03:32:35;22.35;;;14.32;;
36441;SDS011;22470;50.824;16.284;2022-07-23T03:35:02;20.27;;;14.20;;
36441;SDS011;22470;50.824;16.284;2022-07-23T03:37:32;24.23;;;14.57;;
36441;SDS011;22470;50.824;16.284;2022-07-23T03:39:59;19.95;;;14.20;;
36441;SDS011;22470;50.824;16.284;2022-07-23T03:42:27;23.40;;;14.75;;
36441;SDS011;22470;50.824;16.284;2022-07-23T03:44:54;25.83;;;16.02;;
36441;SDS011;22470;50.824;16.284;2022-07-23T03:47:21;28.33;;;18.23;;
36441;SDS011;22470;50.824;16.284;2022-07-23T03:49:49;22.27;;;17.17;;
36441;SDS011;22470;50.824;16.284;2022-07-23T03:52:16;20.95;;;15.68;;
36441;SDS011;22470;50.824;16.284;2022-07-23T03:54:44;25.67;;;15.25;;
36441;SDS011;22470;50.824;16.284;2022-07-23T03:57:11;22.67;;;15.77;;
36441;SDS011;22470;50.824;16.284;2022-07-23T03:59:38;20.30;;;14.80;;
36441;SDS011;22470;50.824;16.284;2022-07-23T04:02:05;22.55;;;17.02;;
36441;SDS011;22470;50.824;16.284;2022-07-23T04:04:32;22.65;;;16.35;;
36441;SDS011;22470;50.824;16.284;2022-07-23T04:07:00;23.50;;;16.50;;
36441;SDS011;22470;50.824;16.284;2022-07-23T04:09:27;22.40;;;16.08;;
36441;SDS011;22470;50.824;16.284;2022-07-23T04:11:54;21.88;;;16.65;;
36441;SDS011;22470;50.824;16.284;2022-07-23T04:14:22;19.60;;;15.02;;
36441;SDS011;22470;50.824;16.284;2022-07-23T04:16:49;21.13;;;15.13;;
36441;SDS011;22470;50.824;16.284;2022-07-23T04:19:16;21.45;;;14.55;;
36441;SDS011;22470;50.824;16.284;2022-07-23T04:21:44;17.63;;;13.23;;
36441;SDS011;22470;50.824;16.284;2022-07-23T04:24:11;23.00;;;14.27;;
36441;SDS011;22470;50.824;16.284;2022-07-23T04:26:38;25.95;;;14.20;;
36441;SDS011;22470;50.824;16.284;2022-07-23T04:29:06;20.48;;;13.88;;
36441;SDS011;22470;50.824;16.284;2022-07-23T04:31:33;23.38;;;14.90;;
36441;SDS011;22470;50.824;16.284;2022-07-23T04:34:03;22.08;;;13.65;;
36441;SDS011;22470;50.824;16.284;2022-07-23T04:36:30;19.60;;;13.65;;
36441;SDS011;22470;50.824;16.284;2022-07-23T04:38:57;22.90;;;13.55;;
36441;SDS011;22470;50.824;16.284;2022-07-23T04:41:24;20.48;;;13.77;;
36441;SDS011;22470;50.824;16.284;2022-07-23T04:43:52;18.27;;;12.93;;
36441;SDS011;22470;50.824;16.284;2022-07-23T04:46:19;20.83;;;13.77;;
36441;SDS011;22470;50.824;16.284;2022-07-23T04:48:46;22.60;;;14.02;;
36441;SDS011;22470;50.824;16.284;2022-07-23T04:51:14;22.33;;;13.70;;
36441;SDS011;22470;50.824;16.284;2022-07-23T04:53:41;20.92;;;13.95;;
36441;SDS011;22470;50.824;16.284;2022-07-23T04:56:09;21.20;;;12.43;;
36441;SDS011;22470;50.824;16.284;2022-07-23T04:58:36;20.40;;;14.13;;
36441;SDS011;22470;50.824;16.284;2022-07-23T05:01:03;19.80;;;13.48;;
36441;SDS011;22470;50.824;16.284;2022-07-23T05:03:30;21.88;;;14.45;;
36441;SDS011;22470;50.824;16.284;2022-07-23T05:05:59;20.63;;;14.20;;
36441;SDS011;22470;50.824;16.284;2022-07-23T05:08:26;24.25;;;14.45;;
36441;SDS011;22470;50.824;16.284;2022-07-23T05:10:53;20.67;;;14.63;;
36441;SDS011;22470;50.824;16.284;2022-07-23T05:13:20;21.10;;;14.35;;
36441;SDS011;22470;50.824;16.284;2022-07-23T05:15:48;21.58;;;14.52;;
36441;SDS011;22470;50.824;16.284;2022-07-23T05:18:15;24.45;;;14.50;;
36441;SDS011;22470;50.824;16.284;2022-07-23T05:20:42;20.40;;;14.95;;
36441;SDS011;22470;50.824;16.284;2022-07-23T05:23:09;20.25;;;14.80;;
36441;SDS011;22470;50.824;16.284;2022-07-23T05:25:37;23.08;;;15.95;;
36441;SDS011;22470;50.824;16.284;2022-07-23T05:28:04;23.05;;;14.50;;
36441;SDS011;22470;50.824;16.284;2022-07-23T05:30:31;19.67;;;14.93;;
36441;SDS011;22470;50.824;16.284;2022-07-23T05:32:58;22.38;;;15.25;;
36441;SDS011;22470;50.824;16.284;2022-07-23T05:35:26;19.70;;;14.63;;
36441;SDS011;22470;50.824;16.284;2022-07-23T05:37:53;22.75;;;13.70;;
36441;SDS011;22470;50.824;16.284;2022-07-23T05:40:20;22.25;;;13.15;;
36441;SDS011;22470;50.824;16.284;2022-07-23T05:42:47;21.73;;;14.38;;
36441;SDS011;22470;50.824;16.284;2022-07-23T05:45:14;20.58;;;14.73;;
36441;SDS011;22470;50.824;16.284;2022-07-23T05:47:42;21.60;;;14.45;;
36441;SDS011;22470;50.824;16.284;2022-07-23T05:50:11;21.13;;;13.38;;
36441;SDS011;22470;50.824;16.284;2022-07-23T05:52:39;23.60;;;13.98;;
36441;SDS011;22470;50.824;16.284;2022-07-23T05:55:06;21.17;;;14.27;;
36441;SDS011;22470;50.824;16.284;2022-07-23T05:57:35;19.48;;;12.57;;
36441;SDS011;22470;50.824;16.284;2022-07-23T06:00:03;19.08;;;13.18;;
36441;SDS011;22470;50.824;16.284;2022-07-23T06:02:31;20.08;;;12.80;;
36441;SDS011;22470;50.824;16.284;2022-07-23T06:04:59;25.77;;;14.00;;
36441;SDS011;22470;50.824;16.284;2022-07-23T06:07:26;22.05;;;14.25;;
36441;SDS011;22470;50.824;16.284;2022-07-23T06:09:53;24.55;;;14.07;;
36441;SDS011;22470;50.824;16.284;2022-07-23T06:12:20;23.83;;;13.52;;
36441;SDS011;22470;50.824;16.284;2022-07-23T06:14:48;20.20;;;12.60;;
36441;SDS011;22470;50.824;16.284;2022-07-23T06:17:15;19.42;;;12.60;;
36441;SDS011;22470;50.824;16.284;2022-07-23T06:19:42;22.38;;;12.02;;
36441;SDS011;22470;50.824;16.284;2022-07-23T06:22:09;19.42;;;12.45;;
36441;SDS011;22470;50.824;16.284;2022-07-23T06:24:36;20.52;;;13.48;;
36441;SDS011;22470;50.824;16.284;2022-07-23T06:27:04;19.60;;;13.95;;
36441;SDS011;22470;50.824;16.284;2022-07-23T06:29:32;22.85;;;13.95;;
36441;SDS011;22470;50.824;16.284;2022-07-23T06:31:59;23.42;;;14.50;;
36441;SDS011;22470;50.824;16.284;2022-07-23T06:34:26;21.38;;;14.43;;
36441;SDS011;22470;50.824;16.284;2022-07-23T06:36:53;24.98;;;14.50;;
36441;SDS011;22470;50.824;16.284;2022-07-23T06:39:20;26.55;;;13.90;;
36441;SDS011;22470;50.824;16.284;2022-07-23T06:41:48;25.85;;;13.75;;
36441;SDS011;22470;50.824;16.284;2022-07-23T06:44:17;20.20;;;13.35;;
36441;SDS011;22470;50.824;16.284;2022-07-23T06:46:45;20.67;;;14.10;;
36441;SDS011;22470;50.824;16.284;2022-07-23T06:49:12;23.48;;;14.77;;
36441;SDS011;22470;50.824;16.284;2022-07-23T06:51:39;24.95;;;15.52;;
36441;SDS011;22470;50.824;16.284;2022-07-23T06:54:06;25.27;;;16.80;;
36441;SDS011;22470;50.824;16.284;2022-07-23T06:56:34;28.38;;;17.48;;
36441;SDS011;22470;50.824;16.284;2022-07-23T06:59:01;29.85;;;18.50;;
36441;SDS011;22470;50.824;16.284;2022-07-23T07:01:29;32.15;;;20.88;;
36441;SDS011;22470;50.824;16.284;2022-07-23T07:03:57;40.60;;;23.98;;
36441;SDS011;22470;50.824;16.284;2022-07-23T07:06:24;35.05;;;24.27;;
36441;SDS011;22470;50.824;16.284;2022-07-23T07:08:51;33.60;;;22.10;;
36441;SDS011;22470;50.824;16.284;2022-07-23T07:11:18;34.60;;;21.48;;
36441;SDS011;22470;50.824;16.284;2022-07-23T07:13:45;30.83;;;20.08;;
36441;SDS011;22470;50.824;16.284;2022-07-23T07:16:13;33.15;;;21.85;;
36441;SDS011;22470;50.824;16.284;2022-07-23T07:18:40;30.42;;;19.27;;
36441;SDS011;22470;50.824;16.284;2022-07-23T07:21:07;29.25;;;18.70;;
36441;SDS011;22470;50.824;16.284;2022-07-23T07:23:34;27.73;;;16.73;;
36441;SDS011;22470;50.824;16.284;2022-07-23T07:26:02;25.77;;;16.55;;
36441;SDS011;22470;50.824;16.284;2022-07-23T07:28:29;26.73;;;15.98;;
36441;SDS011;22470;50.824;16.284;2022-07-23T07:30:56;26.38;;;15.27;;
36441;SDS011;22470;50.824;16.284;2022-07-23T07:33:23;23.85;;;15.55;;
36441;SDS011;22470;50.824;16.284;2022-07-23T07:35:50;23.55;;;15.52;;
36441;SDS011;22470;50.824;16.284;2022-07-23T07:38:17;21.02;;;13.95;;
36441;SDS011;22470;50.824;16.284;2022-07-23T07:40:45;21.45;;;11.55;;
36441;SDS011;22470;50.824;16.284;2022-07-23T07:43:12;18.65;;;11.13;;
36441;SDS011;22470;50.824;16.284;2022-07-23T07:45:39;17.25;;;10.82;;
36441;SDS011;22470;50.824;16.284;2022-07-23T07:48:07;17.02;;;10.75;;
36441;SDS011;22470;50.824;16.284;2022-07-23T07:50:34;16.27;;;10.32;;
36441;SDS011;22470;50.824;16.284;2022-07-23T07:53:01;13.63;;;9.25;;
36441;SDS011;22470;50.824;16.284;2022-07-23T07:55:28;14.00;;;9.45;;
36441;SDS011;22470;50.824;16.284;2022-07-23T07:57:56;16.23;;;9.82;;
36441;SDS011;22470;50.824;16.284;2022-07-23T08:00:23;16.02;;;9.77;;
36441;SDS011;22470;50.824;16.284;2022-07-23T08:02:51;16.10;;;9.68;;
36441;SDS011;22470;50.824;16.284;2022-07-23T08:05:23;12.90;;;8.00;;
36441;SDS011;22470;50.824;16.284;2022-07-23T08:07:55;15.30;;;9.57;;
36441;SDS011;22470;50.824;16.284;2022-07-23T08:10:23;15.50;;;9.23;;
36441;SDS011;22470;50.824;16.284;2022-07-23T08:12:51;23.38;;;8.73;;
36441;SDS011;22470;50.824;16.284;2022-07-23T08:15:20;11.52;;;7.85;;
36441;SDS011;22470;50.824;16.284;2022-07-23T08:17:48;12.85;;;7.22;;
36441;SDS011;22470;50.824;16.284;2022-07-23T08:20:17;10.93;;;7.43;;
36441;SDS011;22470;50.824;16.284;2022-07-23T08:22:59;13.65;;;7.07;;
36441;SDS011;22470;50.824;16.284;2022-07-23T08:25:36;14.18;;;7.38;;
36441;SDS011;22470;50.824;16.284;2022-07-23T08:28:06;10.95;;;7.50;;
36441;SDS011;22470;50.824;16.284;2022-07-23T08:30:38;10.52;;;6.78;;
36441;SDS011;22470;50.824;16.284;2022-07-23T08:33:16;11.82;;;7.90;;
36441;SDS011;22470;50.824;16.284;2022-07-23T08:35:59;13.63;;;7.90;;
36441;SDS011;22470;50.824;16.284;2022-07-23T08:38:28;12.75;;;8.23;;
36441;SDS011;22470;50.824;16.284;2022-07-23T08:40:56;12.02;;;7.93;;
36441;SDS011;22470;50.824;16.284;2022-07-23T08:43:24;15.65;;;8.15;;
36441;SDS011;22470;50.824;16.284;2022-07-23T08:45:54;11.93;;;8.32;;
36441;SDS011;22470;50.824;16.284;2022-07-23T08:48:24;13.93;;;8.88;;
36441;SDS011;22470;50.824;16.284;2022-07-23T08:50:57;11.45;;;8.10;;
36441;SDS011;22470;50.824;16.284;2022-07-23T08:53:28;16.00;;;10.27;;
36441;SDS011;22470;50.824;16.284;2022-07-23T08:55:57;17.80;;;9.52;;
36441;SDS011;22470;50.824;16.284;2022-07-23T08:58:26;12.15;;;8.70;;
36441;SDS011;22470;50.824;16.284;2022-07-23T09:00:54;12.23;;;8.25;;
36441;SDS011;22470;50.824;16.284;2022-07-23T09:03:23;14.43;;;8.95;;
36441;SDS011;22470;50.824;16.284;2022-07-23T09:05:55;14.02;;;9.73;;
36441;SDS011;22470;50.824;16.284;2022-07-23T09:08:44;14.13;;;9.15;;
36441;SDS011;22470;50.824;16.284;2022-07-23T09:11:11;14.45;;;9.52;;
36441;SDS011;22470;50.824;16.284;2022-07-23T09:13:51;13.77;;;9.95;;
36441;SDS011;22470;50.824;16.284;2022-07-23T09:16:28;16.25;;;11.27;;
36441;SDS011;22470;50.824;16.284;2022-07-23T09:23:57;14.35;;;8.57;;
36441;SDS011;22470;50.824;16.284;2022-07-23T09:26:33;12.45;;;9.07;;
36441;SDS011;22470;50.824;16.284;2022-07-23T09:34:22;11.40;;;8.40;;
36441;SDS011;22470;50.824;16.284;2022-07-23T09:36:58;14.80;;;9.23;;
36441;SDS011;22470;50.824;16.284;2022-07-23T09:39:45;14.68;;;9.38;;
36441;SDS011;22470;50.824;16.284;2022-07-23T09:42:21;12.93;;;8.93;;
36441;SDS011;22470;50.824;16.284;2022-07-23T09:44:50;13.80;;;8.75;;
36441;SDS011;22470;50.824;16.284;2022-07-23T09:47:28;16.50;;;10.13;;
36441;SDS011;22470;50.824;16.284;2022-07-23T09:50:06;14.07;;;10.00;;
36441;SDS011;22470;50.824;16.284;2022-07-23T09:52:43;12.82;;;9.80;;
36441;SDS011;22470;50.824;16.284;2022-07-23T09:55:12;14.90;;;10.00;;
36441;SDS011;22470;50.824;16.284;2022-07-23T09:57:40;16.55;;;10.57;;
36441;SDS011;22470;50.824;16.284;2022-07-23T10:00:08;27.58;;;19.40;;
36441;SDS011;22470;50.824;16.284;2022-07-23T10:02:36;14.18;;;9.30;;
36441;SDS011;22470;50.824;16.284;2022-07-23T10:05:05;12.32;;;9.00;;
36441;SDS011;22470;50.824;16.284;2022-07-23T10:07:34;12.10;;;8.85;;
36441;SDS011;22470;50.824;16.284;2022-07-23T10:10:06;12.60;;;8.50;;
36441;SDS011;22470;50.824;16.284;2022-07-23T10:12:34;15.80;;;9.52;;
36441;SDS011;22470;50.824;16.284;2022-07-23T10:15:05;14.90;;;8.52;;
36441;SDS011;22470;50.824;16.284;2022-07-23T10:17:34;14.43;;;9.68;;
36441;SDS011;22470;50.824;16.284;2022-07-23T10:20:02;15.43;;;10.27;;
36441;SDS011;22470;50.824;16.284;2022-07-23T10:22:31;14.98;;;10.18;;
36441;SDS011;22470;50.824;16.284;2022-07-23T10:37:17;16.63;;;9.30;;
36441;SDS011;22470;50.824;16.284;2022-07-23T10:40:09;16.15;;;8.95;;
36441;SDS011;22470;50.824;16.284;2022-07-23T10:42:46;12.70;;;9.57;;
36441;SDS011;22470;50.824;16.284;2022-07-23T10:45:21;14.60;;;8.55;;
36441;SDS011;22470;50.824;16.284;2022-07-23T10:48:11;14.43;;;9.43;;
36441;SDS011;22470;50.824;16.284;2022-07-23T10:59:21;16.63;;;9.80;;
36441;SDS011;22470;50.824;16.284;2022-07-23T11:01:49;14.73;;;9.35;;
36441;SDS011;22470;50.824;16.284;2022-07-23T11:04:17;13.30;;;9.65;;
36441;SDS011;22470;50.824;16.284;2022-07-23T11:09:23;16.90;;;9.73;;
36441;SDS011;22470;50.824;16.284;2022-07-23T11:11:57;13.55;;;8.73;;
36441;SDS011;22470;50.824;16.284;2022-07-23T11:17:28;13.70;;;8.95;;
36441;SDS011;22470;50.824;16.284;2022-07-23T11:22:39;13.63;;;9.43;;
36441;SDS011;22470;50.824;16.284;2022-07-23T11:27:50;13.80;;;9.80;;
36441;SDS011;22470;50.824;16.284;2022-07-23T11:33:15;12.93;;;9.93;;
36441;SDS011;22470;50.824;16.284;2022-07-23T11:35:44;14.52;;;9.40;;
36441;SDS011;22470;50.824;16.284;2022-07-23T11:38:22;12.35;;;9.80;;
36441;SDS011;22470;50.824;16.284;2022-07-23T11:40:51;13.65;;;9.15;;
36441;SDS011;22470;50.824;16.284;2022-07-23T11:43:21;15.35;;;9.10;;
36441;SDS011;22470;50.824;16.284;2022-07-23T11:45:59;13.10;;;9.20;;
36441;SDS011;22470;50.824;16.284;2022-07-23T11:48:28;14.80;;;9.93;;
36441;SDS011;22470;50.824;16.284;2022-07-23T11:50:57;20.25;;;10.07;;
36441;SDS011;22470;50.824;16.284;2022-07-23T11:53:26;15.45;;;9.32;;
36441;SDS011;22470;50.824;16.284;2022-07-23T11:56:05;16.70;;;10.98;;
36441;SDS011;22470;50.824;16.284;2022-07-23T11:58:34;16.13;;;11.02;;
36441;SDS011;22470;50.824;16.284;2022-07-23T12:01:02;20.83;;;10.23;;
36441;SDS011;22470;50.824;16.284;2022-07-23T12:03:30;16.83;;;11.25;;
36441;SDS011;22470;50.824;16.284;2022-07-23T12:05:58;13.30;;;10.27;;
36441;SDS011;22470;50.824;16.284;2022-07-23T12:08:27;19.38;;;9.95;;
36441;SDS011;22470;50.824;16.284;2022-07-23T12:10:56;17.08;;;10.75;;
36441;SDS011;22470;50.824;16.284;2022-07-23T12:13:23;15.60;;;10.68;;
36441;SDS011;22470;50.824;16.284;2022-07-23T12:15:51;15.10;;;10.23;;
36441;SDS011;22470;50.824;16.284;2022-07-23T12:18:20;18.90;;;11.75;;
36441;SDS011;22470;50.824;16.284;2022-07-23T12:20:56;21.70;;;11.23;;
36441;SDS011;22470;50.824;16.284;2022-07-23T12:23:29;16.80;;;10.68;;
36441;SDS011;22470;50.824;16.284;2022-07-23T12:26:00;15.85;;;10.65;;
36441;SDS011;22470;50.824;16.284;2022-07-23T12:28:29;17.90;;;11.18;;
36441;SDS011;22470;50.824;16.284;2022-07-23T12:30:58;16.77;;;10.05;;
36441;SDS011;22470;50.824;16.284;2022-07-23T12:33:30;18.23;;;10.75;;
36441;SDS011;22470;50.824;16.284;2022-07-23T12:38:27;19.15;;;10.57;;
36441;SDS011;22470;50.824;16.284;2022-07-23T12:41:02;18.90;;;10.32;;
36441;SDS011;22470;50.824;16.284;2022-07-23T12:43:31;13.98;;;9.90;;
36441;SDS011;22470;50.824;16.284;2022-07-23T12:46:11;26.23;;;11.15;;
36441;SDS011;22470;50.824;16.284;2022-07-23T12:51:16;12.73;;;9.35;;
36441;SDS011;22470;50.824;16.284;2022-07-23T12:53:53;15.80;;;9.82;;
36441;SDS011;22470;50.824;16.284;2022-07-23T12:58:57;11.35;;;8.77;;
36441;SDS011;22470;50.824;16.284;2022-07-23T13:01:26;13.13;;;9.88;;
36441;SDS011;22470;50.824;16.284;2022-07-23T13:09:12;14.23;;;9.67;;
36441;SDS011;22470;50.824;16.284;2022-07-23T13:11:48;15.05;;;9.85;;
36441;SDS011;22470;50.824;16.284;2022-07-23T13:14:17;15.55;;;9.95;;
36441;SDS011;22470;50.824;16.284;2022-07-23T13:16:47;13.88;;;10.02;;
36441;SDS011;22470;50.824;16.284;2022-07-23T13:19:16;13.00;;;9.27;;
36441;SDS011;22470;50.824;16.284;2022-07-23T13:21:44;17.52;;;9.70;;
36441;SDS011;22470;50.824;16.284;2022-07-23T13:24:12;14.50;;;9.15;;
36441;SDS011;22470;50.824;16.284;2022-07-23T13:26:40;14.27;;;10.20;;
36441;SDS011;22470;50.824;16.284;2022-07-23T13:29:08;17.10;;;9.77;;
36441;SDS011;22470;50.824;16.284;2022-07-23T13:31:36;14.30;;;9.95;;
36441;SDS011;22470;50.824;16.284;2022-07-23T13:34:05;17.55;;;9.95;;
36441;SDS011;22470;50.824;16.284;2022-07-23T13:36:34;15.65;;;10.95;;
36441;SDS011;22470;50.824;16.284;2022-07-23T13:39:02;18.88;;;9.52;;
36441;SDS011;22470;50.824;16.284;2022-07-23T13:41:32;17.00;;;10.20;;
36441;SDS011;22470;50.824;16.284;2022-07-23T13:44:01;14.43;;;10.15;;
36441;SDS011;22470;50.824;16.284;2022-07-23T13:46:29;13.38;;;9.50;;
36441;SDS011;22470;50.824;16.284;2022-07-23T13:48:57;13.85;;;10.95;;
36441;SDS011;22470;50.824;16.284;2022-07-23T13:51:25;14.48;;;10.02;;
36441;SDS011;22470;50.824;16.284;2022-07-23T13:53:54;15.48;;;10.73;;
36441;SDS011;22470;50.824;16.284;2022-07-23T13:56:21;15.88;;;11.63;;
36441;SDS011;22470;50.824;16.284;2022-07-23T13:58:49;14.40;;;11.07;;
36441;SDS011;22470;50.824;16.284;2022-07-23T14:01:16;16.23;;;10.70;;
36441;SDS011;22470;50.824;16.284;2022-07-23T14:03:44;14.40;;;10.55;;
36441;SDS011;22470;50.824;16.284;2022-07-23T14:06:11;16.30;;;10.00;;
36441;SDS011;22470;50.824;16.284;2022-07-23T14:08:42;15.95;;;11.15;;
36441;SDS011;22470;50.824;16.284;2022-07-23T14:11:11;18.00;;;10.90;;
36441;SDS011;22470;50.824;16.284;2022-07-23T14:13:39;16.02;;;11.75;;
36441;SDS011;22470;50.824;16.284;2022-07-23T14:16:07;16.88;;;12.30;;
36441;SDS011;22470;50.824;16.284;2022-07-23T14:18:35;16.45;;;12.13;;
36441;SDS011;22470;50.824;16.284;2022-07-23T14:21:02;24.27;;;13.43;;
36441;SDS011;22470;50.824;16.284;2022-07-23T14:23:32;23.95;;;14.25;;
36441;SDS011;22470;50.824;16.284;2022-07-23T14:26:01;23.92;;;15.48;;
36441;SDS011;22470;50.824;16.284;2022-07-23T14:28:32;23.35;;;16.85;;
36441;SDS011;22470;50.824;16.284;2022-07-23T14:31:02;40.47;;;28.63;;
36441;SDS011;22470;50.824;16.284;2022-07-23T14:33:29;31.70;;;22.00;;
36441;SDS011;22470;50.824;16.284;2022-07-23T14:35:56;21.27;;;15.80;;
36441;SDS011;22470;50.824;16.284;2022-07-23T14:38:23;20.80;;;15.05;;
36441;SDS011;22470;50.824;16.284;2022-07-23T14:40:51;22.05;;;15.82;;
36441;SDS011;22470;50.824;16.284;2022-07-23T14:43:18;18.27;;;15.30;;
36441;SDS011;22470;50.824;16.284;2022-07-23T14:45:45;18.42;;;14.85;;
36441;SDS011;22470;50.824;16.284;2022-07-23T14:48:15;18.85;;;15.05;;
36441;SDS011;22470;50.824;16.284;2022-07-23T14:50:43;21.48;;;15.38;;
36441;SDS011;22470;50.824;16.284;2022-07-23T14:53:11;18.25;;;15.23;;
36441;SDS011;22470;50.824;16.284;2022-07-23T14:55:38;22.45;;;17.00;;
36441;SDS011;22470;50.824;16.284;2022-07-23T14:58:06;20.80;;;16.23;;
36441;SDS011;22470;50.824;16.284;2022-07-23T15:00:34;20.02;;;15.27;;
36441;SDS011;22470;50.824;16.284;2022-07-23T15:03:01;19.33;;;15.00;;
36441;SDS011;22470;50.824;16.284;2022-07-23T15:05:29;20.27;;;16.23;;
36441;SDS011;22470;50.824;16.284;2022-07-23T15:07:57;20.00;;;15.73;;
36441;SDS011;22470;50.824;16.284;2022-07-23T15:10:26;22.40;;;15.45;;
36441;SDS011;22470;50.824;16.284;2022-07-23T15:12:53;19.75;;;14.00;;
36441;SDS011;22470;50.824;16.284;2022-07-23T15:15:21;18.65;;;12.55;;
36441;SDS011;22470;50.824;16.284;2022-07-23T15:17:48;16.95;;;11.98;;